CheckWX is a tool to help pilots better visualize weather data.  It is not intended as a substitute for an official pre-flight weather briefing.

20:30:13 UTC

SUDU TAF
Santa Bernardina International Airport
Durazno, Uruguay
SUDU 221730Z 2218/2318 07005KT 9999 SCT026 SCT200 TX24/2318Z TN10/2309Z TEMPO 2303/2310 3000 BR NSC

Mar-22@
18:00 UTC

Mar-22 @ 18:00 UTC

Mar-23@
18:00 UTC

Mar-23 @ 18:00 UTC

SUDU 221730Z 2218/2318 07005KT 9999 SCT026 SCT200 TX24/2318Z TN10/2309Z
Wind
  • 070° at 5 KTS
Cloud Levels
  • Scattered at 2,600' AGL
  • Scattered at 20,000' AGL

Mar-23@
03:00 UTC

Mar-23 @ 03:00 UTC

Mar-23@
10:00 UTC

Mar-23 @ 10:00 UTC

TEMPO 2303/2310 3000 BR NSC

Temporary

Temporary Changes expected for less than half the time period

Conditions
Mist
Cloud Levels
  • No significant clouds